createdAt,value
2018-09-25T00:02:31.399Z,0.83
2018-09-25T00:05:05.294Z,0.97
2018-09-25T00:07:38.987Z,0.90
2018-09-25T00:10:12.868Z,1.37
2018-09-25T00:12:46.723Z,0.83
2018-09-25T00:15:20.554Z,0.80
2018-09-25T00:17:54.407Z,1.23
2018-09-25T00:20:28.022Z,0.83
2018-09-25T00:23:01.806Z,0.83
2018-09-25T00:25:35.652Z,1.53
2018-09-25T00:28:09.472Z,1.07
2018-09-25T00:30:43.191Z,1.60
2018-09-25T00:33:16.974Z,1.40
2018-09-25T00:35:50.873Z,1.10
2018-09-25T00:38:24.567Z,0.90
2018-09-25T00:40:58.284Z,1.13
2018-09-25T00:43:31.975Z,1.20
2018-09-25T00:46:05.606Z,1.33
2018-09-25T00:48:39.284Z,1.20
2018-09-25T00:51:13.002Z,0.80
2018-09-25T00:53:46.611Z,1.07
2018-09-25T00:56:20.304Z,0.90
2018-09-25T00:58:53.993Z,2.30
2018-09-25T01:01:27.839Z,0.97
2018-09-25T01:04:01.645Z,1.00
2018-09-25T01:06:35.423Z,1.20
2018-09-25T01:09:09.495Z,1.60
2018-09-25T01:11:43.336Z,1.27
2018-09-25T01:14:17.147Z,1.17
2018-09-25T01:16:50.870Z,1.07
2018-09-25T01:19:24.530Z,0.83
2018-09-25T01:21:58.398Z,1.10
2018-09-25T01:24:32.162Z,1.00
2018-09-25T01:27:05.858Z,1.20
2018-09-25T01:29:39.826Z,1.20
2018-09-25T01:32:13.591Z,1.13
2018-09-25T01:34:47.381Z,1.37
2018-09-25T01:37:21.097Z,0.80
2018-09-25T01:39:55.053Z,1.20
2018-09-25T01:42:28.834Z,1.77
2018-09-25T01:45:02.602Z,1.17
2018-09-25T01:47:36.370Z,1.43
2018-09-25T01:50:10.186Z,1.10
2018-09-25T01:52:43.822Z,1.10
2018-09-25T01:55:17.394Z,1.40
2018-09-25T01:57:51.035Z,0.90
2018-09-25T02:00:24.828Z,1.20
2018-09-25T02:02:58.569Z,1.40
2018-09-25T02:05:32.294Z,1.10
2018-09-25T02:08:06.030Z,1.17
2018-09-25T02:10:39.746Z,1.13
2018-09-25T02:13:13.582Z,1.13
2018-09-25T02:15:47.258Z,1.53
2018-09-25T02:18:21.009Z,1.63
2018-09-25T02:20:54.669Z,1.03
2018-09-25T02:23:28.531Z,1.10
2018-09-25T02:26:02.422Z,1.23
2018-09-25T02:28:36.090Z,1.13
2018-09-25T02:31:09.714Z,0.83
2018-09-25T02:33:43.550Z,1.20
2018-09-25T02:36:17.197Z,1.10
2018-09-25T02:38:51.037Z,1.63
2018-09-25T02:41:24.630Z,1.40
2018-09-25T02:43:58.469Z,1.43
2018-09-25T02:46:32.116Z,1.50
2018-09-25T02:49:05.974Z,1.20
2018-09-25T02:51:39.618Z,2.10
2018-09-25T02:54:13.454Z,1.30
2018-09-25T02:56:47.279Z,1.87
2018-09-25T02:59:21.067Z,1.43
2018-09-25T03:01:54.710Z,1.50
2018-09-25T03:04:28.479Z,1.60
2018-09-25T03:07:02.146Z,1.93
2018-09-25T03:09:35.810Z,1.60
2018-09-25T03:12:09.459Z,2.87
2018-09-25T03:14:43.141Z,1.80
2018-09-25T03:17:16.762Z,1.47
2018-09-25T03:19:50.381Z,2.10
2018-09-25T03:22:23.980Z,1.97
2018-09-25T03:24:57.816Z,1.90
2018-09-25T03:27:31.605Z,1.87
2018-09-25T03:30:05.446Z,1.60
2018-09-25T03:32:39.118Z,1.83
2018-09-25T03:35:12.858Z,1.53
2018-09-25T03:37:46.649Z,1.97
2018-09-25T03:40:20.466Z,2.23
2018-09-25T03:42:54.138Z,2.33
2018-09-25T03:45:27.827Z,1.57
2018-09-25T03:48:01.550Z,2.00
2018-09-25T03:50:35.234Z,1.50
2018-09-25T03:53:09.026Z,1.80
2018-09-25T03:55:42.896Z,2.60
2018-09-25T03:58:16.642Z,1.97
2018-09-25T04:00:50.527Z,2.40
2018-09-25T04:03:24.198Z,1.70
2018-09-25T04:05:58.103Z,1.73
2018-09-25T04:08:31.882Z,1.60
2018-09-25T04:11:05.594Z,2.00
2018-09-25T04:13:39.165Z,2.13
2018-09-25T04:16:13.055Z,1.50
2018-09-25T04:18:46.955Z,2.43
2018-09-25T04:21:20.768Z,1.93
2018-09-25T04:23:54.459Z,2.10
2018-09-25T04:26:28.251Z,1.80
2018-09-25T04:29:01.927Z,1.53
2018-09-25T04:31:35.787Z,2.33
2018-09-25T04:34:09.680Z,3.33
2018-09-25T04:36:43.442Z,2.77
2018-09-25T04:39:17.186Z,1.77
2018-09-25T04:41:50.998Z,3.30
2018-09-25T04:44:24.598Z,1.80
2018-09-25T04:46:58.306Z,2.40
2018-09-25T04:49:32.023Z,2.70
2018-09-25T04:52:05.841Z,1.97
2018-09-25T04:54:39.539Z,1.80
2018-09-25T04:57:13.330Z,1.97
2018-09-25T04:59:47.122Z,1.77
2018-09-25T05:02:20.810Z,1.70
2018-09-25T05:04:54.778Z,1.60
2018-09-25T05:07:28.571Z,1.90
2018-09-25T05:10:02.266Z,2.03
2018-09-25T05:12:35.978Z,2.57
2018-09-25T05:15:09.676Z,1.73
2018-09-25T05:17:43.391Z,1.73
2018-09-25T05:20:17.186Z,2.30
2018-09-25T05:22:50.996Z,1.80
2018-09-25T05:25:24.743Z,1.57
2018-09-25T05:27:58.418Z,1.57
2018-09-25T05:30:32.316Z,2.00
2018-09-25T05:33:06.116Z,1.77
2018-09-25T05:35:39.913Z,1.93
2018-09-25T05:38:13.735Z,1.60
2018-09-25T05:40:47.440Z,1.87
2018-09-25T05:43:21.234Z,1.90
2018-09-25T05:45:54.879Z,1.87
2018-09-25T05:48:28.691Z,2.73
2018-09-25T05:51:02.210Z,1.67
2018-09-25T05:53:35.958Z,2.00
2018-09-25T05:56:09.630Z,2.87
2018-09-25T05:58:43.338Z,1.87
2018-09-25T06:01:17.187Z,1.40
2018-09-25T06:03:50.977Z,1.30
2018-09-25T06:06:24.765Z,1.60
2018-09-25T06:08:58.483Z,2.10
2018-09-25T06:11:32.304Z,2.03
2018-09-25T06:14:06.117Z,1.77
2018-09-25T06:16:39.833Z,1.40
2018-09-25T06:19:13.594Z,1.47
2018-09-25T06:21:47.297Z,2.27
2018-09-25T06:24:20.958Z,2.90
2018-09-25T06:26:54.701Z,3.00
2018-09-25T06:29:28.452Z,2.50
2018-09-25T06:32:02.148Z,2.40
2018-09-25T06:34:36.029Z,1.87
2018-09-25T06:37:09.704Z,2.30
2018-09-25T06:39:43.439Z,1.67
2018-09-25T06:42:17.083Z,1.90
2018-09-25T06:44:50.769Z,1.73
2018-09-25T06:47:24.621Z,1.67
2018-09-25T06:49:58.226Z,1.73
2018-09-25T06:52:32.078Z,3.67
2018-09-25T06:55:05.875Z,5.30
2018-09-25T06:57:39.434Z,4.13
2018-09-25T07:00:13.098Z,4.90
2018-09-25T07:02:46.866Z,4.43
2018-09-25T07:05:20.708Z,6.10
2018-09-25T07:07:54.518Z,5.03
2018-09-25T07:10:28.436Z,3.13
2018-09-25T07:13:01.962Z,3.53
2018-09-25T07:15:35.878Z,3.53
2018-09-25T07:18:09.499Z,3.30
2018-09-25T07:20:43.358Z,2.47
2018-09-25T07:23:17.131Z,1.50
2018-09-25T07:25:50.773Z,1.60
2018-09-25T07:28:24.538Z,1.33
2018-09-25T07:30:58.380Z,2.13
2018-09-25T07:33:32.221Z,1.73
2018-09-25T07:36:06.090Z,1.80
2018-09-25T07:38:39.854Z,3.60
2018-09-25T07:41:13.718Z,1.70
2018-09-25T07:43:47.466Z,2.13
2018-09-25T07:46:21.309Z,1.63
2018-09-25T07:48:55.070Z,1.63
2018-09-25T07:51:28.793Z,2.20
2018-09-25T07:54:02.611Z,1.47
2018-09-25T07:56:36.322Z,1.67
2018-09-25T07:59:09.970Z,1.33
2018-09-25T08:01:43.707Z,1.90
2018-09-25T08:04:17.430Z,1.60
2018-09-25T08:06:51.148Z,1.70
2018-09-25T08:09:24.818Z,1.80
2018-09-25T08:11:58.507Z,1.80
2018-09-25T08:14:32.354Z,1.97
2018-09-25T08:17:06.063Z,1.80
2018-09-25T08:19:39.787Z,1.90
2018-09-25T08:22:13.547Z,2.23
2018-09-25T08:24:47.337Z,1.80
2018-09-25T08:27:21.199Z,1.90
2018-09-25T08:29:54.884Z,1.57
2018-09-25T08:32:28.595Z,1.70
2018-09-25T08:35:02.317Z,2.40
2018-09-25T08:37:36.126Z,1.53
2018-09-25T08:40:09.821Z,1.50
2018-09-25T08:42:43.635Z,2.00
2018-09-25T08:45:17.409Z,1.30
2018-09-25T08:47:51.245Z,1.50
2018-09-25T08:50:24.886Z,1.83
2018-09-25T08:53:06.602Z,1.80
2018-09-25T08:55:40.200Z,2.10
2018-09-25T08:58:13.947Z,1.40
2018-09-25T09:00:47.779Z,1.97
2018-09-25T09:03:21.673Z,1.90
2018-09-25T09:05:55.567Z,2.07
2018-09-25T09:08:29.425Z,1.87
2018-09-25T09:11:03.030Z,1.87
2018-09-25T09:13:37.413Z,1.60
2018-09-25T09:16:11.162Z,2.30
2018-09-25T09:18:45.003Z,1.80
2018-09-25T09:21:18.675Z,1.87
2018-09-25T09:23:52.558Z,1.33
2018-09-25T09:26:26.455Z,1.40
2018-09-25T09:29:00.343Z,1.77
2018-09-25T09:31:33.991Z,2.30
2018-09-25T09:34:07.682Z,1.40
2018-09-25T09:36:41.429Z,1.17
2018-09-25T09:39:15.110Z,1.50
2018-09-25T09:41:49.066Z,2.17
2018-09-25T09:44:22.672Z,2.37
2018-09-25T09:46:56.442Z,1.70
2018-09-25T09:49:30.177Z,1.40
2018-09-25T09:52:04.082Z,1.20
2018-09-25T09:54:37.896Z,1.90
2018-09-25T09:57:11.938Z,1.53
2018-09-25T09:59:45.678Z,1.80
2018-09-25T10:02:19.366Z,1.60
2018-09-25T10:04:53.133Z,1.30
2018-09-25T10:07:26.761Z,1.83
2018-09-25T10:10:00.567Z,1.67
2018-09-25T10:12:34.220Z,1.93
2018-09-25T10:15:08.060Z,1.17
2018-09-25T10:17:41.806Z,1.63
2018-09-25T10:20:15.590Z,1.23
2018-09-25T10:22:49.334Z,1.40
2018-09-25T10:25:23.118Z,1.07
2018-09-25T10:27:56.818Z,1.23
2018-09-25T10:30:30.629Z,2.23
2018-09-25T10:33:04.302Z,1.57
2018-09-25T10:35:37.917Z,1.07
2018-09-25T10:38:11.633Z,1.47
2018-09-25T10:40:45.606Z,1.10
2018-09-25T10:43:19.246Z,1.90
2018-09-25T10:45:53.010Z,1.10
2018-09-25T10:48:26.777Z,0.90
2018-09-25T10:51:00.518Z,1.20
2018-09-25T10:53:34.335Z,1.70
2018-09-25T10:56:08.277Z,1.13
2018-09-25T10:58:41.926Z,1.10
2018-09-25T11:01:15.766Z,1.53
2018-09-25T11:03:49.418Z,1.40
2018-09-25T11:06:23.226Z,1.13
2018-09-25T11:08:56.843Z,1.23
2018-09-25T11:11:30.533Z,1.77
2018-09-25T11:14:04.380Z,1.70
2018-09-25T11:16:38.206Z,1.43
2018-09-25T11:19:11.866Z,1.90
2018-09-25T11:21:45.678Z,0.90
2018-09-25T11:24:19.530Z,1.00
2018-09-25T11:26:53.318Z,0.97
2018-09-25T11:29:26.912Z,1.10
2018-09-25T11:32:00.622Z,1.30
2018-09-25T11:34:34.418Z,0.90
2018-09-25T11:37:08.131Z,0.60
2018-09-25T11:39:41.809Z,1.20
2018-09-25T11:42:15.467Z,0.90
2018-09-25T11:44:49.210Z,1.10
2018-09-25T11:47:23.035Z,0.90
2018-09-25T11:49:56.760Z,0.83
2018-09-25T11:52:30.594Z,0.90
2018-09-25T11:55:04.364Z,1.67
2018-09-25T11:57:38.254Z,0.90
2018-09-25T12:00:12.083Z,0.90
2018-09-25T12:02:45.906Z,0.70
2018-09-25T12:05:19.594Z,0.90
2018-09-25T12:07:53.437Z,0.73
2018-09-25T12:10:27.291Z,1.10
2018-09-25T12:13:01.102Z,0.70
2018-09-25T12:15:34.898Z,0.90
2018-09-25T12:18:08.662Z,0.80
2018-09-25T12:20:42.431Z,1.10
2018-09-25T12:23:16.149Z,0.70
2018-09-25T12:25:49.945Z,0.90
2018-09-25T12:28:23.654Z,0.90
2018-09-25T12:30:57.428Z,1.30
2018-09-25T12:33:31.110Z,0.93
2018-09-25T12:36:04.837Z,0.70
2018-09-25T12:38:38.529Z,4.53
2018-09-25T12:41:12.470Z,3.27
2018-09-25T12:43:46.183Z,1.13
2018-09-25T12:46:19.801Z,1.10
2018-09-25T12:48:53.443Z,0.97
2018-09-25T12:51:27.092Z,0.90
2018-09-25T12:54:00.754Z,1.23
2018-09-25T12:56:34.426Z,1.37
2018-09-25T12:59:08.189Z,1.07
2018-09-25T13:01:41.887Z,1.00
2018-09-25T13:04:15.722Z,1.10
2018-09-25T13:06:49.629Z,0.60
2018-09-25T13:09:23.333Z,0.73
2018-09-25T13:11:57.107Z,1.00
2018-09-25T13:14:30.809Z,0.80
2018-09-25T13:17:04.552Z,1.10
2018-09-25T13:19:38.374Z,1.10
2018-09-25T13:22:12.145Z,0.90
2018-09-25T13:24:45.976Z,1.03
2018-09-25T13:27:19.730Z,0.70
2018-09-25T13:29:53.448Z,2.83
2018-09-25T13:32:27.143Z,1.00
2018-09-25T13:35:01.002Z,0.77
2018-09-25T13:37:34.698Z,0.80
2018-09-25T13:40:08.363Z,1.13
2018-09-25T13:42:42.611Z,1.10
2018-09-25T13:45:16.422Z,0.83
2018-09-25T13:47:50.065Z,0.83
2018-09-25T13:50:23.858Z,1.50
2018-09-25T13:52:57.482Z,0.93
2018-09-25T13:55:31.186Z,0.70
2018-09-25T13:58:04.787Z,1.10
2018-09-25T14:00:38.665Z,0.93
2018-09-25T14:03:12.446Z,1.30
2018-09-25T14:05:46.239Z,0.80
2018-09-25T14:08:19.905Z,0.80
2018-09-25T14:10:53.570Z,0.80
2018-09-25T14:13:27.366Z,0.80
2018-09-25T14:16:01.210Z,0.87
2018-09-25T14:18:35.021Z,1.13
2018-09-25T14:21:08.816Z,0.67
2018-09-25T14:23:42.577Z,0.60
2018-09-25T14:26:16.411Z,0.80
2018-09-25T14:28:50.122Z,0.80
2018-09-25T14:31:23.915Z,0.60
2018-09-25T14:33:57.728Z,0.77
2018-09-25T14:36:31.396Z,0.70
2018-09-25T14:39:05.064Z,0.70
2018-09-25T14:41:38.779Z,0.87
2018-09-25T14:44:12.657Z,1.07
2018-09-25T14:46:46.442Z,1.10
2018-09-25T14:49:20.206Z,1.20
2018-09-25T14:51:53.921Z,1.20
2018-09-25T14:54:27.779Z,0.70
2018-09-25T14:57:01.434Z,0.90
2018-09-25T14:59:35.153Z,0.80
2018-09-25T15:02:08.870Z,0.77
2018-09-25T15:04:42.662Z,1.00
2018-09-25T15:07:16.548Z,0.90
2018-09-25T15:09:50.370Z,1.00
2018-09-25T15:12:24.117Z,1.00
2018-09-25T15:14:57.785Z,1.13
2018-09-25T15:17:31.527Z,1.07
2018-09-25T15:20:05.186Z,1.00
2018-09-25T15:22:38.906Z,1.63
2018-09-25T15:25:13.003Z,0.93
2018-09-25T15:27:46.890Z,0.90
2018-09-25T15:30:20.734Z,0.80
2018-09-25T15:32:54.526Z,1.53
2018-09-25T15:35:28.499Z,1.63
2018-09-25T15:38:02.059Z,1.20
2018-09-25T15:40:35.766Z,0.97
2018-09-25T15:43:09.603Z,1.33
2018-09-25T15:45:43.570Z,1.47
2018-09-25T15:48:17.310Z,1.43
2018-09-25T15:50:50.946Z,1.27
2018-09-25T15:53:24.663Z,1.80
2018-09-25T15:55:58.385Z,1.50
2018-09-25T15:58:32.221Z,1.30
2018-09-25T16:01:06.766Z,1.10
2018-09-25T16:03:40.434Z,1.30
2018-09-25T16:06:14.098Z,1.57
2018-09-25T16:08:47.866Z,1.53
2018-09-25T16:11:21.571Z,1.27
2018-09-25T16:13:55.406Z,1.87
2018-09-25T16:16:29.019Z,1.73
2018-09-25T16:19:02.786Z,1.37
2018-09-25T16:21:36.610Z,2.67
2018-09-25T16:24:10.277Z,1.90
2018-09-25T16:26:43.941Z,1.30
2018-09-25T16:29:17.786Z,1.00
2018-09-25T16:31:51.450Z,1.60
2018-09-25T16:34:25.223Z,2.03
2018-09-25T16:36:58.885Z,1.73
2018-09-25T16:39:32.776Z,1.83
2018-09-25T16:42:06.470Z,1.80
2018-09-25T16:44:40.137Z,1.30
2018-09-25T16:47:14.055Z,1.70
2018-09-25T16:49:47.750Z,1.90
2018-09-25T16:52:21.415Z,1.90
2018-09-25T16:54:55.158Z,1.77
2018-09-25T16:57:28.846Z,1.83
2018-09-25T17:00:02.535Z,2.40
2018-09-25T17:02:36.234Z,3.10
2018-09-25T17:05:09.945Z,3.70
2018-09-25T17:07:43.626Z,3.90
2018-09-25T17:10:17.490Z,4.00
2018-09-25T17:12:51.253Z,4.40
2018-09-25T17:15:25.090Z,6.10
2018-09-25T17:17:58.890Z,7.20
2018-09-25T17:20:32.711Z,4.50
2018-09-25T17:23:06.374Z,2.80
2018-09-25T17:25:40.116Z,2.40
2018-09-25T17:28:13.934Z,2.60
2018-09-25T17:30:47.713Z,3.93
2018-09-25T17:33:21.490Z,3.00
2018-09-25T17:35:55.233Z,3.27
2018-09-25T17:38:29.010Z,2.83
2018-09-25T17:41:02.742Z,3.03
2018-09-25T17:43:36.410Z,3.17
2018-09-25T17:46:10.278Z,2.40
2018-09-25T17:48:44.077Z,2.97
2018-09-25T17:51:17.785Z,3.30
2018-09-25T17:53:51.550Z,2.73
2018-09-25T17:56:25.250Z,3.80
2018-09-25T17:58:58.862Z,4.10
2018-09-25T18:01:32.678Z,3.53
2018-09-25T18:04:06.480Z,5.47
2018-09-25T18:06:40.231Z,6.10
2018-09-25T18:09:14.666Z,10.40
2018-09-25T18:11:48.523Z,11.50
2018-09-25T18:14:22.262Z,12.77
2018-09-25T18:16:55.929Z,11.90
2018-09-25T18:19:29.658Z,11.10
2018-09-25T18:22:03.346Z,11.20
2018-09-25T18:24:37.166Z,11.80
2018-09-25T18:27:11.178Z,11.50
2018-09-25T18:29:44.986Z,10.30
2018-09-25T18:32:18.810Z,10.27
2018-09-25T18:34:52.430Z,8.10
2018-09-25T18:37:26.101Z,8.60
2018-09-25T18:39:59.914Z,7.03
2018-09-25T18:42:33.734Z,9.27
2018-09-25T18:45:07.407Z,8.40
2018-09-25T18:47:41.037Z,9.70
2018-09-25T18:50:14.806Z,10.20
2018-09-25T18:52:48.557Z,11.90
2018-09-25T18:55:22.315Z,11.73
2018-09-25T18:57:56.130Z,11.10
2018-09-25T19:00:29.923Z,10.30
2018-09-25T19:03:03.746Z,10.07
2018-09-25T19:05:37.411Z,8.50
2018-09-25T19:08:11.122Z,7.50
2018-09-25T19:10:44.817Z,6.70
2018-09-25T19:13:18.561Z,5.50
2018-09-25T19:15:52.437Z,4.20
2018-09-25T19:18:26.318Z,5.03
2018-09-25T19:21:00.187Z,4.30
2018-09-25T19:23:33.902Z,6.77
2018-09-25T19:26:08.023Z,8.80
2018-09-25T19:28:41.834Z,8.10
2018-09-25T19:31:15.506Z,5.37
2018-09-25T19:33:49.146Z,5.97
2018-09-25T19:36:22.947Z,4.93
2018-09-25T19:38:56.630Z,5.80
2018-09-25T19:41:30.434Z,7.07
2018-09-25T19:44:04.246Z,13.43
2018-09-25T19:46:38.075Z,5.97
2018-09-25T19:49:11.883Z,3.50
2018-09-25T19:51:45.575Z,2.97
2018-09-25T19:54:19.362Z,2.17
2018-09-25T19:56:53.194Z,1.43
2018-09-25T19:59:26.920Z,1.97
2018-09-25T20:02:00.806Z,1.70
2018-09-25T20:04:34.505Z,2.10
2018-09-25T20:07:08.290Z,1.57
2018-09-25T20:09:42.114Z,1.87
2018-09-25T20:12:15.945Z,1.90
2018-09-25T20:14:49.826Z,1.90
2018-09-25T20:17:24.682Z,1.70
2018-09-25T20:19:58.458Z,1.70
2018-09-25T20:22:32.270Z,2.00
2018-09-25T20:25:06.010Z,1.57
2018-09-25T20:27:39.930Z,1.97
2018-09-25T20:30:13.555Z,1.83
2018-09-25T20:32:47.434Z,2.20
2018-09-25T20:35:21.308Z,1.63
2018-09-25T20:37:55.127Z,1.83
2018-09-25T20:40:28.900Z,1.87
2018-09-25T20:43:02.667Z,2.00
2018-09-25T20:45:36.406Z,1.73
2018-09-25T20:48:10.258Z,1.40
2018-09-25T20:50:44.118Z,2.00
2018-09-25T20:53:17.999Z,2.23
2018-09-25T20:55:51.774Z,2.00
2018-09-25T20:58:25.390Z,2.10
2018-09-25T21:00:59.134Z,2.13
2018-09-25T21:03:32.974Z,2.20
2018-09-25T21:06:06.866Z,1.90
2018-09-25T21:08:40.582Z,1.57
2018-09-25T21:11:14.381Z,2.00
2018-09-25T21:13:48.214Z,1.40
2018-09-25T21:16:21.962Z,1.10
2018-09-25T21:18:55.825Z,1.90
2018-09-25T21:21:29.492Z,1.20
2018-09-25T21:24:03.191Z,1.70
2018-09-25T21:26:36.938Z,2.20
2018-09-25T21:29:10.870Z,1.60
2018-09-25T21:31:44.490Z,1.60
2018-09-25T21:34:18.230Z,2.03
2018-09-25T21:36:51.898Z,2.57
2018-09-25T21:39:25.838Z,1.87
2018-09-25T21:41:59.530Z,2.13
2018-09-25T21:44:33.245Z,1.03
2018-09-25T21:47:07.097Z,2.20
2018-09-25T21:49:40.730Z,1.40
2018-09-25T21:52:14.478Z,2.23
2018-09-25T21:54:48.218Z,1.77
2018-09-25T21:57:22.114Z,1.60
2018-09-25T21:59:55.774Z,1.80
2018-09-25T22:02:29.370Z,1.50
2018-09-25T22:05:03.206Z,1.70
2018-09-25T22:07:37.028Z,2.10
2018-09-25T22:10:10.917Z,1.53
2018-09-25T22:12:44.739Z,1.67
2018-09-25T22:15:18.579Z,1.43
2018-09-25T22:17:52.499Z,1.77
2018-09-25T22:20:26.386Z,1.87
2018-09-25T22:23:00.182Z,2.20
2018-09-25T22:25:33.966Z,1.80
2018-09-25T22:28:07.791Z,2.00
2018-09-25T22:30:41.554Z,1.90
2018-09-25T22:33:15.202Z,1.93
2018-09-25T22:35:48.867Z,1.80
2018-09-25T22:38:23.294Z,1.97
2018-09-25T22:40:56.947Z,2.30
2018-09-25T22:43:30.523Z,2.30
2018-09-25T22:46:04.236Z,1.70
2018-09-25T22:48:38.006Z,2.27
2018-09-25T22:51:11.839Z,1.40
2018-09-25T22:53:45.640Z,1.70
2018-09-25T22:56:19.350Z,1.87
2018-09-25T22:58:53.167Z,2.30
2018-09-25T23:01:27.010Z,1.80
2018-09-25T23:04:00.854Z,2.17
2018-09-25T23:06:34.673Z,2.37
2018-09-25T23:09:08.491Z,1.67
2018-09-25T23:11:42.331Z,2.33
2018-09-25T23:14:15.946Z,2.10
2018-09-25T23:16:49.737Z,1.93
2018-09-25T23:19:23.362Z,1.63
2018-09-25T23:21:57.122Z,2.87
2018-09-25T23:24:30.939Z,2.10
2018-09-25T23:27:04.834Z,2.10
2018-09-25T23:29:38.482Z,1.80
2018-09-25T23:32:12.682Z,2.20
2018-09-25T23:34:46.411Z,2.70
2018-09-25T23:37:20.121Z,2.70
2018-09-25T23:40:00.953Z,2.43
2018-09-25T23:42:35.510Z,2.53
2018-09-25T23:46:11.425Z,2.23
2018-09-25T23:48:59.810Z,2.10
2018-09-25T23:51:36.239Z,3.43
2018-09-25T23:54:10.705Z,1.93
2018-09-25T23:57:42.414Z,2.27
